sensor_id;sensor_type;location;lat;lon;timestamp;pressure;altitude;pressure_sealevel;temperature;humidity
13011;BME280;6786;57.632;11.962;2023-07-24T00:02:06;99298.47;;;20.47;64.25
13011;BME280;6786;57.632;11.962;2023-07-24T00:04:38;99294.75;;;20.48;64.55
13011;BME280;6786;57.632;11.962;2023-07-24T00:07:10;99283.19;;;20.48;64.19
13011;BME280;6786;57.632;11.962;2023-07-24T00:09:43;99288.56;;;20.48;64.50
13011;BME280;6786;57.632;11.962;2023-07-24T00:12:15;99284.88;;;20.49;64.34
13011;BME280;6786;57.632;11.962;2023-07-24T00:14:49;99279.69;;;20.47;64.48
13011;BME280;6786;57.632;11.962;2023-07-24T00:17:23;99279.69;;;20.47;64.43
13011;BME280;6786;57.632;11.962;2023-07-24T00:19:57;99277.00;;;20.47;64.52
13011;BME280;6786;57.632;11.962;2023-07-24T00:22:29;99268.94;;;20.47;64.49
13011;BME280;6786;57.632;11.962;2023-07-24T00:25:02;99260.91;;;20.47;64.47
13011;BME280;6786;57.632;11.962;2023-07-24T00:27:34;99251.81;;;20.48;64.49
13011;BME280;6786;57.632;11.962;2023-07-24T00:30:12;99257.19;;;20.48;64.57
13011;BME280;6786;57.632;11.962;2023-07-24T00:32:54;99250.16;;;20.47;64.38
13011;BME280;6786;57.632;11.962;2023-07-24T00:35:29;99244.81;;;20.47;64.44
13011;BME280;6786;57.632;11.962;2023-07-24T00:38:14;99244.81;;;20.47;64.67
13011;BME280;6786;57.632;11.962;2023-07-24T00:40:48;99234.06;;;20.47;64.46
13011;BME280;6786;57.632;11.962;2023-07-24T00:43:21;99225.00;;;20.48;64.38
13011;BME280;6786;57.632;11.962;2023-07-24T00:45:57;99223.97;;;20.49;64.52
13011;BME280;6786;57.632;11.962;2023-07-24T00:48:32;99206.38;;;20.47;64.38
13011;BME280;6786;57.632;11.962;2023-07-24T00:51:07;99214.25;;;20.48;64.26
13011;BME280;6786;57.632;11.962;2023-07-24T00:53:40;99215.91;;;20.49;64.51
13011;BME280;6786;57.632;11.962;2023-07-24T00:56:20;99210.53;;;20.49;64.33
13011;BME280;6786;57.632;11.962;2023-07-24T00:59:05;99196.50;;;20.47;64.39
13011;BME280;6786;57.632;11.962;2023-07-24T01:01:37;99195.28;;;20.50;64.26
13011;BME280;6786;57.632;11.962;2023-07-24T01:04:14;99189.91;;;20.50;64.36
13011;BME280;6786;57.632;11.962;2023-07-24T01:06:47;99180.38;;;20.47;64.56
13011;BME280;6786;57.632;11.962;2023-07-24T01:09:21;99179.19;;;20.50;64.51
13011;BME280;6786;57.632;11.962;2023-07-24T01:12:02;99170.03;;;20.44;64.34
13011;BME280;6786;57.632;11.962;2023-07-24T01:14:52;99172.16;;;20.49;64.72
13011;BME280;6786;57.632;11.962;2023-07-24T01:17:31;99165.84;;;20.42;64.55
13011;BME280;6786;57.632;11.962;2023-07-24T01:20:11;99184.72;;;20.48;64.43
13011;BME280;6786;57.632;11.962;2023-07-24T01:22:56;99181.03;;;20.49;64.77
13011;BME280;6786;57.632;11.962;2023-07-24T01:25:34;99175.03;;;20.47;64.49
13011;BME280;6786;57.632;11.962;2023-07-24T01:28:14;99174.66;;;20.50;64.42
13011;BME280;6786;57.632;11.962;2023-07-24T01:30:51;99162.25;;;20.49;64.45
13011;BME280;6786;57.632;11.962;2023-07-24T01:33:27;99129.63;;;20.23;64.61
13011;BME280;6786;57.632;11.962;2023-07-24T01:36:02;99169.28;;;20.50;64.57
13011;BME280;6786;57.632;11.962;2023-07-24T01:38:37;99171.97;;;20.50;64.63
13011;BME280;6786;57.632;11.962;2023-07-24T01:41:09;99156.88;;;20.49;64.78
13011;BME280;6786;57.632;11.962;2023-07-24T01:43:45;99162.25;;;20.49;64.52
13011;BME280;6786;57.632;11.962;2023-07-24T01:46:18;99160.59;;;20.48;64.55
13011;BME280;6786;57.632;11.962;2023-07-24T01:49:03;99155.22;;;20.48;64.60
13011;BME280;6786;57.632;11.962;2023-07-24T01:51:37;99140.78;;;20.49;64.57
13011;BME280;6786;57.632;11.962;2023-07-24T01:54:09;99151.50;;;20.49;64.85
13011;BME280;6786;57.632;11.962;2023-07-24T01:56:42;99146.13;;;20.49;64.49
13011;BME280;6786;57.632;11.962;2023-07-24T01:59:23;99142.47;;;20.50;64.44
13011;BME280;6786;57.632;11.962;2023-07-24T02:02:08;99140.78;;;20.49;64.69
13011;BME280;6786;57.632;11.962;2023-07-24T02:04:40;99146.13;;;20.49;64.67
13011;BME280;6786;57.632;11.962;2023-07-24T02:07:12;99138.09;;;20.49;64.63
13011;BME280;6786;57.632;11.962;2023-07-24T02:09:44;99135.41;;;20.49;64.58
13011;BME280;6786;57.632;11.962;2023-07-24T02:12:21;99130.03;;;20.49;64.59
13011;BME280;6786;57.632;11.962;2023-07-24T02:14:57;99130.03;;;20.49;64.78
13011;BME280;6786;57.632;11.962;2023-07-24T02:17:31;99121.34;;;20.47;64.72
13011;BME280;6786;57.632;11.962;2023-07-24T02:20:08;99118.50;;;20.49;64.55
13011;BME280;6786;57.632;11.962;2023-07-24T02:22:41;99119.31;;;20.49;64.63
13011;BME280;6786;57.632;11.962;2023-07-24T02:25:14;99123.00;;;20.48;64.70
13011;BME280;6786;57.632;11.962;2023-07-24T02:27:45;99123.00;;;20.48;64.64
13011;BME280;6786;57.632;11.962;2023-07-24T02:30:22;99117.63;;;20.48;64.81
13011;BME280;6786;57.632;11.962;2023-07-24T02:32:55;99111.25;;;20.49;64.85
13011;BME280;6786;57.632;11.962;2023-07-24T02:35:27;99118.50;;;20.49;64.74
13011;BME280;6786;57.632;11.962;2023-07-24T02:38:02;99119.31;;;20.49;64.67
13011;BME280;6786;57.632;11.962;2023-07-24T02:40:46;99113.94;;;20.49;64.54
13011;BME280;6786;57.632;11.962;2023-07-24T02:43:18;99118.50;;;20.49;64.92
13011;BME280;6786;57.632;11.962;2023-07-24T02:46:01;99108.56;;;20.49;65.01
13011;BME280;6786;57.632;11.962;2023-07-24T02:48:35;99105.88;;;20.49;64.71
13011;BME280;6786;57.632;11.962;2023-07-24T02:51:08;99101.91;;;20.45;64.72
13011;BME280;6786;57.632;11.962;2023-07-24T02:53:40;99096.19;;;20.48;64.89
13011;BME280;6786;57.632;11.962;2023-07-24T02:56:18;99094.53;;;20.47;64.95
13011;BME280;6786;57.632;11.962;2023-07-24T02:58:50;99098.19;;;20.46;64.90
13011;BME280;6786;57.632;11.962;2023-07-24T03:01:25;99101.72;;;20.47;65.00
13011;BME280;6786;57.632;11.962;2023-07-24T03:03:59;99087.47;;;20.46;64.98
13011;BME280;6786;57.632;11.962;2023-07-24T03:06:32;99087.47;;;20.46;65.09
13011;BME280;6786;57.632;11.962;2023-07-24T03:09:09;99082.94;;;20.47;64.84
13011;BME280;6786;57.632;11.962;2023-07-24T03:11:43;99087.47;;;20.46;64.98
13011;BME280;6786;57.632;11.962;2023-07-24T03:14:20;99077.56;;;20.47;64.96
13011;BME280;6786;57.632;11.962;2023-07-24T03:16:58;99085.81;;;20.45;64.99
13011;BME280;6786;57.632;11.962;2023-07-24T03:19:30;99082.09;;;20.46;64.99
13011;BME280;6786;57.632;11.962;2023-07-24T03:22:02;99079.41;;;20.46;64.93
13011;BME280;6786;57.632;11.962;2023-07-24T03:24:34;99082.09;;;20.46;64.96
13011;BME280;6786;57.632;11.962;2023-07-24T03:27:08;99078.41;;;20.47;64.87
13011;BME280;6786;57.632;11.962;2023-07-24T03:29:43;99070.72;;;20.44;65.18
13011;BME280;6786;57.632;11.962;2023-07-24T03:32:21;99046.38;;;20.31;64.85
13011;BME280;6786;57.632;11.962;2023-07-24T03:35:00;99076.72;;;20.46;64.89
13011;BME280;6786;57.632;11.962;2023-07-24T03:37:34;99073.84;;;20.48;65.17
13011;BME280;6786;57.632;11.962;2023-07-24T03:40:08;99074.03;;;20.46;65.10
13011;BME280;6786;57.632;11.962;2023-07-24T03:42:40;99078.78;;;20.44;65.24
13011;BME280;6786;57.632;11.962;2023-07-24T03:45:15;99071.34;;;20.46;65.21
13011;BME280;6786;57.632;11.962;2023-07-24T03:47:53;99074.03;;;20.46;65.35
13011;BME280;6786;57.632;11.962;2023-07-24T03:50:25;99075.06;;;20.45;65.10
13011;BME280;6786;57.632;11.962;2023-07-24T03:53:08;99067.88;;;20.46;65.27
13011;BME280;6786;57.632;11.962;2023-07-24T03:55:39;99069.03;;;20.43;65.26
13011;BME280;6786;57.632;11.962;2023-07-24T03:58:15;99066.38;;;20.43;65.40
13011;BME280;6786;57.632;11.962;2023-07-24T04:00:48;99070.91;;;20.43;65.25
13011;BME280;6786;57.632;11.962;2023-07-24T04:03:25;99061.00;;;20.43;65.47
13011;BME280;6786;57.632;11.962;2023-07-24T04:05:57;99061.00;;;20.43;65.37
13011;BME280;6786;57.632;11.962;2023-07-24T04:08:28;99061.00;;;20.43;65.32
13011;BME280;6786;57.632;11.962;2023-07-24T04:11:00;99048.41;;;20.44;65.33
13011;BME280;6786;57.632;11.962;2023-07-24T04:13:35;99051.94;;;20.44;65.24
13011;BME280;6786;57.632;11.962;2023-07-24T04:16:10;99055.63;;;20.43;65.23
13011;BME280;6786;57.632;11.962;2023-07-24T04:18:46;99051.94;;;20.44;65.42
13011;BME280;6786;57.632;11.962;2023-07-24T04:21:20;99044.91;;;20.43;65.33
13011;BME280;6786;57.632;11.962;2023-07-24T04:23:52;99039.53;;;20.43;65.52
13011;BME280;6786;57.632;11.962;2023-07-24T04:26:24;99046.59;;;20.44;65.30
13011;BME280;6786;57.632;11.962;2023-07-24T04:28:58;99033.16;;;20.44;65.32
13011;BME280;6786;57.632;11.962;2023-07-24T04:31:36;99032.13;;;20.45;65.41
13011;BME280;6786;57.632;11.962;2023-07-24T04:34:11;99040.38;;;20.44;65.40
13011;BME280;6786;57.632;11.962;2023-07-24T04:36:43;99035.84;;;20.44;65.32
13011;BME280;6786;57.632;11.962;2023-07-24T04:39:17;99028.59;;;20.45;65.37
13011;BME280;6786;57.632;11.962;2023-07-24T04:41:54;99025.75;;;20.46;65.48
13011;BME280;6786;57.632;11.962;2023-07-24T04:44:26;99017.69;;;20.46;65.47
13011;BME280;6786;57.632;11.962;2023-07-24T04:46:59;99017.69;;;20.46;65.61
13011;BME280;6786;57.632;11.962;2023-07-24T04:49:41;99012.31;;;20.46;65.75
13011;BME280;6786;57.632;11.962;2023-07-24T04:52:19;99011.50;;;20.46;65.36
13011;BME280;6786;57.632;11.962;2023-07-24T04:54:53;99009.03;;;20.44;65.43
13011;BME280;6786;57.632;11.962;2023-07-24T04:57:27;99013.16;;;20.47;65.49
13011;BME280;6786;57.632;11.962;2023-07-24T04:59:58;99006.97;;;20.46;65.37
13011;BME280;6786;57.632;11.962;2023-07-24T05:02:32;99001.97;;;20.43;65.35
13011;BME280;6786;57.632;11.962;2023-07-24T05:05:10;99000.78;;;20.46;65.45
13011;BME280;6786;57.632;11.962;2023-07-24T05:07:43;98994.56;;;20.45;65.55
13011;BME280;6786;57.632;11.962;2023-07-24T05:10:18;98994.56;;;20.45;65.55
13011;BME280;6786;57.632;11.962;2023-07-24T05:12:52;98998.91;;;20.46;65.61
13011;BME280;6786;57.632;11.962;2023-07-24T05:15:25;98990.84;;;20.46;65.83
13011;BME280;6786;57.632;11.962;2023-07-24T05:18:02;98999.75;;;20.47;65.80
13011;BME280;6786;57.632;11.962;2023-07-24T05:20:44;98994.56;;;20.45;66.08
13011;BME280;6786;57.632;11.962;2023-07-24T05:23:16;98986.53;;;20.45;65.86
13011;BME280;6786;57.632;11.962;2023-07-24T05:25:57;98991.22;;;20.43;66.34
13011;BME280;6786;57.632;11.962;2023-07-24T05:28:30;98991.22;;;20.43;65.81
13011;BME280;6786;57.632;11.962;2023-07-24T05:31:04;98985.06;;;20.43;65.82
13011;BME280;6786;57.632;11.962;2023-07-24T05:33:36;98996.59;;;20.43;65.86
13011;BME280;6786;57.632;11.962;2023-07-24T05:36:11;98985.88;;;20.43;66.00
13011;BME280;6786;57.632;11.962;2023-07-24T05:38:44;98986.72;;;20.44;65.93
13011;BME280;6786;57.632;11.962;2023-07-24T05:41:17;98980.50;;;20.43;66.04
13011;BME280;6786;57.632;11.962;2023-07-24T05:43:51;98980.50;;;20.43;66.15
13011;BME280;6786;57.632;11.962;2023-07-24T05:46:23;98974.31;;;20.43;66.12
13011;BME280;6786;57.632;11.962;2023-07-24T05:48:56;98975.13;;;20.43;66.09
13011;BME280;6786;57.632;11.962;2023-07-24T05:51:31;98969.75;;;20.43;66.02
13011;BME280;6786;57.632;11.962;2023-07-24T05:54:04;98971.44;;;20.44;66.03
13011;BME280;6786;57.632;11.962;2023-07-24T05:56:36;98966.09;;;20.44;66.19
13011;BME280;6786;57.632;11.962;2023-07-24T05:59:11;98966.09;;;20.44;66.04
13011;BME280;6786;57.632;11.962;2023-07-24T06:01:48;98967.72;;;20.45;66.31
13011;BME280;6786;57.632;11.962;2023-07-24T06:04:20;98966.09;;;20.44;66.25
13011;BME280;6786;57.632;11.962;2023-07-24T06:06:55;98967.72;;;20.45;66.11
13011;BME280;6786;57.632;11.962;2023-07-24T06:09:33;98971.44;;;20.44;66.25
13011;BME280;6786;57.632;11.962;2023-07-24T06:12:06;98960.72;;;20.44;66.34
13011;BME280;6786;57.632;11.962;2023-07-24T06:14:38;98962.38;;;20.45;66.29
13011;BME280;6786;57.632;11.962;2023-07-24T06:17:13;98965.06;;;20.45;66.18
13011;BME280;6786;57.632;11.962;2023-07-24T06:19:44;98959.69;;;20.45;66.14
13011;BME280;6786;57.632;11.962;2023-07-24T06:22:21;98956.16;;;20.45;66.23
13011;BME280;6786;57.632;11.962;2023-07-24T06:24:53;98912.06;;;20.18;66.22
13011;BME280;6786;57.632;11.962;2023-07-24T06:27:26;98953.66;;;20.43;66.23
13011;BME280;6786;57.632;11.962;2023-07-24T06:29:58;98952.00;;;20.42;66.54
13011;BME280;6786;57.632;11.962;2023-07-24T06:32:42;98945.97;;;20.40;66.60
13011;BME280;6786;57.632;11.962;2023-07-24T06:35:16;98945.00;;;20.41;66.37
13011;BME280;6786;57.632;11.962;2023-07-24T06:37:52;98945.81;;;20.42;66.46
13011;BME280;6786;57.632;11.962;2023-07-24T06:40:26;98941.28;;;20.42;66.45
13011;BME280;6786;57.632;11.962;2023-07-24T06:43:01;98940.44;;;20.42;66.68
13011;BME280;6786;57.632;11.962;2023-07-24T06:45:34;98918.34;;;20.25;66.51
13011;BME280;6786;57.632;11.962;2023-07-24T06:48:06;98926.38;;;20.40;66.67
13011;BME280;6786;57.632;11.962;2023-07-24T06:50:50;98925.19;;;20.42;66.57
13011;BME280;6786;57.632;11.962;2023-07-24T06:53:25;98920.84;;;20.41;66.46
13011;BME280;6786;57.632;11.962;2023-07-24T06:55:56;98925.19;;;20.42;66.53
13011;BME280;6786;57.632;11.962;2023-07-24T06:58:29;98933.03;;;20.44;66.73
13011;BME280;6786;57.632;11.962;2023-07-24T07:01:05;98932.19;;;20.43;66.77
13011;BME280;6786;57.632;11.962;2023-07-24T07:03:37;98918.97;;;20.42;66.77
13011;BME280;6786;57.632;11.962;2023-07-24T07:06:11;98921.47;;;20.43;66.66
13011;BME280;6786;57.632;11.962;2023-07-24T07:08:52;98920.66;;;20.43;67.07
13011;BME280;6786;57.632;11.962;2023-07-24T07:11:27;98916.28;;;20.42;66.96
13011;BME280;6786;57.632;11.962;2023-07-24T07:14:00;98909.06;;;20.42;66.94
13011;BME280;6786;57.632;11.962;2023-07-24T07:16:37;98914.44;;;20.42;66.84
13011;BME280;6786;57.632;11.962;2023-07-24T07:19:09;98902.06;;;20.41;66.88
13011;BME280;6786;57.632;11.962;2023-07-24T07:21:43;98905.38;;;20.43;66.93
13011;BME280;6786;57.632;11.962;2023-07-24T07:24:21;98906.69;;;20.47;66.77
13011;BME280;6786;57.632;11.962;2023-07-24T07:26:53;98906.69;;;20.47;66.79
13011;BME280;6786;57.632;11.962;2023-07-24T07:29:25;98900.47;;;20.47;66.80
13011;BME280;6786;57.632;11.962;2023-07-24T07:31:56;98908.31;;;20.48;66.76
13011;BME280;6786;57.632;11.962;2023-07-24T07:34:30;98901.31;;;20.47;66.73
13011;BME280;6786;57.632;11.962;2023-07-24T07:37:07;98896.94;;;20.46;66.80
13011;BME280;6786;57.632;11.962;2023-07-24T07:39:42;98900.47;;;20.47;67.11
13011;BME280;6786;57.632;11.962;2023-07-24T07:42:27;98895.09;;;20.47;66.85
13011;BME280;6786;57.632;11.962;2023-07-24T07:45:11;98898.63;;;20.47;67.04
13011;BME280;6786;57.632;11.962;2023-07-24T07:47:44;98898.81;;;20.46;67.01
13011;BME280;6786;57.632;11.962;2023-07-24T07:50:18;98892.59;;;20.45;67.19
13011;BME280;6786;57.632;11.962;2023-07-24T07:52:50;98894.63;;;20.43;67.22
13011;BME280;6786;57.632;11.962;2023-07-24T07:55:26;98891.75;;;20.45;67.23
13011;BME280;6786;57.632;11.962;2023-07-24T07:58:03;98880.22;;;20.44;67.06
13011;BME280;6786;57.632;11.962;2023-07-24T08:00:50;98885.59;;;20.44;67.15
13011;BME280;6786;57.632;11.962;2023-07-24T08:03:23;98887.25;;;20.45;67.16
13011;BME280;6786;57.632;11.962;2023-07-24T08:05:57;98885.59;;;20.44;67.10
13011;BME280;6786;57.632;11.962;2023-07-24T08:08:40;98881.22;;;20.43;67.15
13011;BME280;6786;57.632;11.962;2023-07-24T08:11:22;98881.22;;;20.43;67.30
13011;BME280;6786;57.632;11.962;2023-07-24T08:13:54;98888.25;;;20.44;67.38
13011;BME280;6786;57.632;11.962;2023-07-24T08:16:26;98883.91;;;20.43;67.39
13011;BME280;6786;57.632;11.962;2023-07-24T08:19:02;98880.22;;;20.44;67.14
13011;BME280;6786;57.632;11.962;2023-07-24T08:21:33;98876.69;;;20.44;67.22
13011;BME280;6786;57.632;11.962;2023-07-24T08:24:08;98874.84;;;20.44;67.43
13011;BME280;6786;57.632;11.962;2023-07-24T08:27:03;98879.19;;;20.45;67.70
13011;BME280;6786;57.632;11.962;2023-07-24T08:29:36;98881.88;;;20.45;67.23
13011;BME280;6786;57.632;11.962;2023-07-24T08:32:09;98877.53;;;20.44;67.39
13011;BME280;6786;57.632;11.962;2023-07-24T08:34:44;98880.22;;;20.44;67.20
13011;BME280;6786;57.632;11.962;2023-07-24T08:37:17;98887.25;;;20.45;67.36
13011;BME280;6786;57.632;11.962;2023-07-24T08:39:50;98885.22;;;20.47;67.44
13011;BME280;6786;57.632;11.962;2023-07-24T08:42:28;98887.25;;;20.45;67.38
13011;BME280;6786;57.632;11.962;2023-07-24T08:45:01;98877.53;;;20.44;67.30
13011;BME280;6786;57.632;11.962;2023-07-24T08:47:33;98874.84;;;20.44;67.53
13011;BME280;6786;57.632;11.962;2023-07-24T08:50:06;98857.06;;;20.43;67.54
13011;BME280;6786;57.632;11.962;2023-07-24T08:52:39;98855.41;;;20.42;67.64
13011;BME280;6786;57.632;11.962;2023-07-24T08:55:14;98851.69;;;20.43;67.42
13011;BME280;6786;57.632;11.962;2023-07-24T08:57:51;98850.03;;;20.42;67.56
13011;BME280;6786;57.632;11.962;2023-07-24T09:00:29;98855.41;;;20.42;67.55
13011;BME280;6786;57.632;11.962;2023-07-24T09:03:00;98850.03;;;20.42;67.46
13011;BME280;6786;57.632;11.962;2023-07-24T09:05:32;98851.69;;;20.43;67.57
13011;BME280;6786;57.632;11.962;2023-07-24T09:08:09;98851.69;;;20.43;67.42
13011;BME280;6786;57.632;11.962;2023-07-24T09:10:59;98855.03;;;20.45;67.64
13011;BME280;6786;57.632;11.962;2023-07-24T09:13:40;98843.28;;;20.46;67.43
13011;BME280;6786;57.632;11.962;2023-07-24T09:16:22;98843.94;;;20.48;67.54
13011;BME280;6786;57.632;11.962;2023-07-24T09:18:55;98845.97;;;20.46;67.38
13011;BME280;6786;57.632;11.962;2023-07-24T09:21:37;98847.63;;;20.47;67.55
13011;BME280;6786;57.632;11.962;2023-07-24T09:24:13;98840.41;;;20.48;67.54
13011;BME280;6786;57.632;11.962;2023-07-24T09:27:00;98842.28;;;20.47;67.57
13011;BME280;6786;57.632;11.962;2023-07-24T09:29:39;98842.28;;;20.47;67.35
13011;BME280;6786;57.632;11.962;2023-07-24T09:32:19;98845.75;;;20.48;67.56
13011;BME280;6786;57.632;11.962;2023-07-24T09:34:52;98833.94;;;20.42;67.80
13011;BME280;6786;57.632;11.962;2023-07-24T09:37:30;98838.94;;;20.45;67.54
13011;BME280;6786;57.632;11.962;2023-07-24T09:40:04;98840.59;;;20.46;67.58
13011;BME280;6786;57.632;11.962;2023-07-24T09:42:37;98835.22;;;20.46;67.49
13011;BME280;6786;57.632;11.962;2023-07-24T09:45:34;98830.69;;;20.47;67.61
13011;BME280;6786;57.632;11.962;2023-07-24T09:48:14;98835.22;;;20.46;67.84
13011;BME280;6786;57.632;11.962;2023-07-24T09:50:55;98836.91;;;20.47;67.58
13011;BME280;6786;57.632;11.962;2023-07-24T09:53:39;98834.22;;;20.47;67.83
13011;BME280;6786;57.632;11.962;2023-07-24T09:56:13;98836.91;;;20.47;67.85
13011;BME280;6786;57.632;11.962;2023-07-24T09:58:49;98829.44;;;20.43;67.69
13011;BME280;6786;57.632;11.962;2023-07-24T10:01:28;98833.19;;;20.48;68.09
13011;BME280;6786;57.632;11.962;2023-07-24T10:04:05;98834.84;;;20.49;67.67
13011;BME280;6786;57.632;11.962;2023-07-24T10:06:37;98838.56;;;20.48;67.82
13011;BME280;6786;57.632;11.962;2023-07-24T10:09:09;98832.34;;;20.48;67.82
13011;BME280;6786;57.632;11.962;2023-07-24T10:11:42;98824.09;;;20.49;67.89
13011;BME280;6786;57.632;11.962;2023-07-24T10:14:19;98834.84;;;20.49;67.73
13011;BME280;6786;57.632;11.962;2023-07-24T10:16:55;98830.31;;;20.50;67.88
13011;BME280;6786;57.632;11.962;2023-07-24T10:19:35;98828.47;;;20.50;68.03
13011;BME280;6786;57.632;11.962;2023-07-24T10:22:08;98831.16;;;20.50;67.84
13011;BME280;6786;57.632;11.962;2023-07-24T10:24:39;98823.31;;;20.49;67.91
13011;BME280;6786;57.632;11.962;2023-07-24T10:27:15;98829.47;;;20.49;67.70
13011;BME280;6786;57.632;11.962;2023-07-24T10:29:58;98834.84;;;20.49;68.13
13011;BME280;6786;57.632;11.962;2023-07-24T10:33:03;98824.09;;;20.49;68.20
13011;BME280;6786;57.632;11.962;2023-07-24T10:35:39;98827.81;;;20.48;67.83
13011;BME280;6786;57.632;11.962;2023-07-24T10:38:13;98808.16;;;20.41;67.83
13011;BME280;6786;57.632;11.962;2023-07-24T10:40:48;98820.81;;;20.47;68.09
13011;BME280;6786;57.632;11.962;2023-07-24T10:43:43;98817.09;;;20.48;68.03
13011;BME280;6786;57.632;11.962;2023-07-24T10:46:17;98817.09;;;20.48;68.03
13011;BME280;6786;57.632;11.962;2023-07-24T10:48:53;98810.88;;;20.48;68.16
13011;BME280;6786;57.632;11.962;2023-07-24T10:51:25;98819.59;;;20.50;68.30
13011;BME280;6786;57.632;11.962;2023-07-24T10:53:59;98813.38;;;20.49;68.19
13011;BME280;6786;57.632;11.962;2023-07-24T10:56:32;98808.38;;;20.46;68.01
13011;BME280;6786;57.632;11.962;2023-07-24T10:59:12;98807.19;;;20.49;68.14
13011;BME280;6786;57.632;11.962;2023-07-24T11:01:46;98805.50;;;20.48;68.26
13011;BME280;6786;57.632;11.962;2023-07-24T11:04:30;98811.53;;;20.50;68.58
13011;BME280;6786;57.632;11.962;2023-07-24T11:07:02;98760.22;;;20.17;67.96
13011;BME280;6786;57.632;11.962;2023-07-24T11:09:36;98805.31;;;20.49;68.10
13011;BME280;6786;57.632;11.962;2023-07-24T11:12:12;98808.38;;;20.46;68.14
13011;BME280;6786;57.632;11.962;2023-07-24T11:14:48;98813.38;;;20.49;68.23
13011;BME280;6786;57.632;11.962;2023-07-24T11:17:34;98818.75;;;20.49;68.60
13011;BME280;6786;57.632;11.962;2023-07-24T11:20:14;98815.06;;;20.50;68.49
13011;BME280;6786;57.632;11.962;2023-07-24T11:22:46;98809.69;;;20.50;68.32
13011;BME280;6786;57.632;11.962;2023-07-24T11:25:19;98809.69;;;20.50;68.12
13011;BME280;6786;57.632;11.962;2023-07-24T11:27:54;98811.06;;;20.46;68.25
13011;BME280;6786;57.632;11.962;2023-07-24T11:30:27;98813.19;;;20.51;68.39
13011;BME280;6786;57.632;11.962;2023-07-24T11:33:10;98825.78;;;20.50;68.29
13011;BME280;6786;57.632;11.962;2023-07-24T11:35:48;98811.34;;;20.51;68.23
13011;BME280;6786;57.632;11.962;2023-07-24T11:38:20;98815.06;;;20.50;68.31
13011;BME280;6786;57.632;11.962;2023-07-24T11:40:55;98815.88;;;20.51;68.32
13011;BME280;6786;57.632;11.962;2023-07-24T11:43:45;98810.31;;;20.52;68.53
13011;BME280;6786;57.632;11.962;2023-07-24T11:46:23;98800.63;;;20.51;68.38
13011;BME280;6786;57.632;11.962;2023-07-24T11:48:57;98815.06;;;20.50;68.25
13011;BME280;6786;57.632;11.962;2023-07-24T11:51:37;98809.69;;;20.50;68.68
13011;BME280;6786;57.632;11.962;2023-07-24T11:54:09;98813.38;;;20.49;68.38
13011;BME280;6786;57.632;11.962;2023-07-24T11:56:42;98808.00;;;20.49;68.58
13011;BME280;6786;57.632;11.962;2023-07-24T11:59:16;98825.78;;;20.50;68.54
13011;BME280;6786;57.632;11.962;2023-07-24T12:01:50;98816.72;;;20.51;68.54
13011;BME280;6786;57.632;11.962;2023-07-24T12:04:24;98818.56;;;20.51;68.42
13011;BME280;6786;57.632;11.962;2023-07-24T12:07:00;98814.03;;;20.51;68.52
13011;BME280;6786;57.632;11.962;2023-07-24T12:09:50;98816.72;;;20.51;68.64
13011;BME280;6786;57.632;11.962;2023-07-24T12:12:37;98817.84;;;20.42;69.25
13011;BME280;6786;57.632;11.962;2023-07-24T12:15:14;98808.91;;;20.35;68.94
13011;BME280;6786;57.632;11.962;2023-07-24T12:17:47;98814.13;;;20.43;68.90
13011;BME280;6786;57.632;11.962;2023-07-24T12:20:22;98816.19;;;20.41;68.81
13011;BME280;6786;57.632;11.962;2023-07-24T12:22:59;98816.63;;;20.45;68.97
13011;BME280;6786;57.632;11.962;2023-07-24T12:25:32;98814.13;;;20.43;69.03
13011;BME280;6786;57.632;11.962;2023-07-24T12:28:05;98814.13;;;20.43;68.92
13011;BME280;6786;57.632;11.962;2023-07-24T12:30:51;98815.81;;;20.44;69.06
13011;BME280;6786;57.632;11.962;2023-07-24T12:33:35;98812.94;;;20.46;68.94
13011;BME280;6786;57.632;11.962;2023-07-24T12:36:06;98807.13;;;20.42;69.32
13011;BME280;6786;57.632;11.962;2023-07-24T12:38:42;98808.78;;;20.43;69.01
13011;BME280;6786;57.632;11.962;2023-07-24T12:41:18;98808.78;;;20.43;68.96
13011;BME280;6786;57.632;11.962;2023-07-24T12:43:54;98810.44;;;20.44;69.00
13011;BME280;6786;57.632;11.962;2023-07-24T12:46:27;98810.06;;;20.47;68.84
13011;BME280;6786;57.632;11.962;2023-07-24T12:49:01;98817.28;;;20.47;69.03
13011;BME280;6786;57.632;11.962;2023-07-24T12:51:33;98808.78;;;20.43;69.15
13011;BME280;6786;57.632;11.962;2023-07-24T12:54:09;98815.44;;;20.47;68.78
13011;BME280;6786;57.632;11.962;2023-07-24T12:57:04;98807.78;;;20.44;69.33
13011;BME280;6786;57.632;11.962;2023-07-24T12:59:36;98811.72;;;20.48;69.05
13011;BME280;6786;57.632;11.962;2023-07-24T13:02:11;98809.69;;;20.50;69.00
13011;BME280;6786;57.632;11.962;2023-07-24T13:04:44;98810.06;;;20.47;69.03
13011;BME280;6786;57.632;11.962;2023-07-24T13:07:19;98813.75;;;20.46;69.18
13011;BME280;6786;57.632;11.962;2023-07-24T13:09:56;98802.66;;;20.49;68.90
13011;BME280;6786;57.632;11.962;2023-07-24T13:12:30;98814.13;;;20.43;69.03
13011;BME280;6786;57.632;11.962;2023-07-24T13:15:06;98805.09;;;20.44;69.21
13011;BME280;6786;57.632;11.962;2023-07-24T13:17:38;98805.09;;;20.44;69.28
13011;BME280;6786;57.632;11.962;2023-07-24T13:20:11;98808.38;;;20.46;69.30
13011;BME280;6786;57.632;11.962;2023-07-24T13:22:43;98810.44;;;20.44;69.35
13011;BME280;6786;57.632;11.962;2023-07-24T13:25:22;98804.31;;;20.50;69.16
13011;BME280;6786;57.632;11.962;2023-07-24T13:27:55;98796.00;;;20.45;69.23
13011;BME280;6786;57.632;11.962;2023-07-24T13:30:27;98800.72;;;20.43;69.41
13011;BME280;6786;57.632;11.962;2023-07-24T13:33:01;98803.03;;;20.46;69.23
13011;BME280;6786;57.632;11.962;2023-07-24T13:35:34;98801.75;;;20.42;69.23
13011;BME280;6786;57.632;11.962;2023-07-24T13:38:10;98727.69;;;19.91;69.42
13011;BME280;6786;57.632;11.962;2023-07-24T13:41:06;98804.44;;;20.42;69.44
13011;BME280;6786;57.632;11.962;2023-07-24T13:43:38;98803.03;;;20.46;69.12
13011;BME280;6786;57.632;11.962;2023-07-24T13:46:12;98809.69;;;20.50;69.08